Time,TemperatureF,DewpointF,PressureIn,WindDirection,WindDirectionDegrees,WindSpeedMPH,WindSpeedGustMPH,Humidity,HourlyPrecipIn,Conditions,Clouds,dailyrainin,SoftwareType,DateUTC
2014-01-11 00:00:00,35.6,34.6,29.74,SW,225,2.0,7.0,96,0.00,SCT,FEW,0.00,WeatherDisplay:10.37,2014-01-11 00:00:00,
2014-01-11 01:00:00,35.8,35.0,29.74,SSW,200,5.0,9.0,97,0.00,FEW,FEW,0.00,WeatherDisplay:10.37,2014-01-11 01:00:00,
2014-01-11 02:00:00,35.6,34.8,29.74,WSW,243,5.0,9.0,97,0.00,FEW,FEW,0.00,WeatherDisplay:10.37,2014-01-11 02:00:00,
2014-01-11 03:00:00,37.6,36.8,29.74,WSW,248,6.0,10.0,97,0.00,FEW,FEW,0.00,WeatherDisplay:10.37,2014-01-11 03:00:00,
2014-01-11 04:00:00,38.3,37.5,29.74,SE,136,3.0,10.0,97,0.00,FEW,FEW,0.00,WeatherDisplay:10.37,2014-01-11 04:00:00,
2014-01-11 05:00:00,38.3,37.5,29.74,SW,229,6.0,14.0,97,0.03,BKN,FEW,0.03,WeatherDisplay:10.37,2014-01-11 05:00:00,
2014-01-11 06:00:00,36.7,35.4,29.74,SSE,157,6.0,14.0,95,0.00,BKN,FEW,0.03,WeatherDisplay:10.37,2014-01-11 06:00:00,
2014-01-11 07:00:00,35.8,34.8,29.74,SW,220,5.0,17.0,96,0.00,BKN,FEW,0.03,WeatherDisplay:10.37,2014-01-11 07:00:00,
2014-01-11 08:00:00,34.9,33.9,29.74,WSW,257,2.0,9.0,96,0.00,BKN,FEW,0.03,WeatherDisplay:10.37,2014-01-11 08:00:00,
2014-01-11 09:00:00,34.0,33.0,29.74,SW,227,3.0,8.0,96,0.00,SCT,FEW,0.03,WeatherDisplay:10.37,2014-01-11 09:00:00,
2014-01-11 10:00:00,35.1,34.3,29.74,SW,224,3.0,10.0,97,0.00,SCT,FEW,0.03,WeatherDisplay:10.37,2014-01-11 10:00:00,
2014-01-11 11:00:00,36.5,35.5,29.74,SSW,211,1.0,5.0,96,0.00,SCT,FEW,0.03,WeatherDisplay:10.37,2014-01-11 11:00:00,
2014-01-11 12:00:00,39.2,38.2,30.04,South,170,2.0,5.0,96,0.00,SCT,FEW,0.03,WeatherDisplay:10.37,2014-01-11 12:00:00,
2014-01-11 13:00:00,41.4,38.6,30.03,SW,227,3.0,7.0,90,0.00,SCT,FEW,0.03,WeatherDisplay:10.37,2014-01-11 13:00:00,
2014-01-11 14:00:00,42.1,37.6,30.03,SSE,149,3.0,7.0,84,0.00,SCT,FEW,0.03,WeatherDisplay:10.37,2014-01-11 14:00:00,
2014-01-11 15:00:00,42.8,37.7,30.03,SW,231,3.0,6.0,82,0.00,CLR,FEW,0.03,WeatherDisplay:10.37,2014-01-11 15:00:00,
2014-01-11 16:00:00,39.6,35.1,30.01,SSW,196,1.0,6.0,84,0.00,CLR,FEW,0.03,WeatherDisplay:10.37,2014-01-11 16:00:00,
2014-01-11 17:00:00,35.4,32.5,30.01,SE,130,0.0,2.0,89,0.00,CLR,FEW,0.03,WeatherDisplay:10.37,2014-01-11 17:00:00,
2014-01-11 18:00:00,34.0,31.9,30.01,ESE,107,0.0,1.0,92,0.00,CLR,FEW,0.03,WeatherDisplay:10.37,2014-01-11 18:00:00,
2014-01-11 19:00:00,33.3,31.5,30.01,ESE,110,0.0,1.0,93,0.00,CLR,FEW,0.03,WeatherDisplay:10.37,2014-01-11 19:00:00,
2014-01-11 20:00:00,33.6,32.3,30.01,ESE,119,0.0,2.0,95,0.00,CLR,FEW,0.03,WeatherDisplay:10.37,2014-01-11 20:00:00,
2014-01-11 21:00:00,35.6,34.0,30.01,ESE,115,2.0,4.0,94,0.00,CLR,FEW,0.03,WeatherDisplay:10.37,2014-01-11 21:00:00,
2014-01-11 22:00:00,37.2,35.1,30.01,ESE,102,2.0,5.0,92,0.00,CLR,FEW,0.03,WeatherDisplay:10.37,2014-01-11 22:00:00,
2014-01-11 23:00:00,37.6,35.5,30.01,ESE,118,1.0,5.0,92,0.00,BKN,FEW,0.03,WeatherDisplay:10.37,2014-01-11 23:00:00,